Terminal Aerodrome Forecast
Issued by NWS

Home | Current Version | Previous Version | Graphics & Text | Print | Product List | Glossary On
Versions: 1 2 3 4 5 6 7 8 9 10 11 12 13 14 15
000
FTUS43 KFGF 172321
TAFBJI
TAF
KBJI 172321Z 1800/1824 30008KT P6SM BKN200
     FM181600 30013KT P6SM BKN030
     FM182100 30015KT P6SM BKN045
     FM182300 30012KT P6SM SCT070=

USA.gov is the U.S. government's official web portal to all federal, state and local government web resources and services.